Hoytsville, Utah
Current Conditions -  °F | °C
As of 5:53 PM on Wednesday 17 Dec 2014 (Local Time) from KEVW Reporting Station
Clear Clear  
Wind Chill: 21°   Ceiling: Unl
Heat Index: 29°   Visibility: 10mi
Dew Point: 18°   Wind: 8mph
Humidity: 64%   Direction: 290°WNW
Pressure: 29.97"   Gusts: NA
Location:  40.9431°N, 111.212°W
Report Text: KEVW 180053Z AUTO 29007KT 10SM CLR M02/M08 A2997 RMK AO2 SLP164 T10171078
Loading
Personal Weather Stations






























Interactive Weather Map New forecast layout! Learn more

10-Day Weather Forecast

Advertisements
Track Severe Weather on mobile